Airfield :
LOGIN :

Register | Disclaimer

   EN    FR    IT 

 










Legend :    VFR   Marginal VFR   IFR   Intensive IFR   Very Intensive IFR
Visi :
Ceiling :
>= 8 km
>= 3000ft
5 to 8 km
1000 to 3000 ft
1500m to 5 km
500 to 1000 ft
800 to 1500m
200 to 500 ft
< 800m
< 200 ft
Symbols :   Thunderstorms  Fog  Heavy snow  Heavy precipitations  Wind > 20 kt
SIGMETs :     Misc.  Thunderstorms  Icing  Turbulence  Mountain Waves  Volcanic Ashes







- Airport Elevation : 291 ft
- IATA code : ORY
- Download approach charts


LFPO - Paris-Orly

CURRENT METAR :
  • 212200Z 33004KT CAVOK 16/13 Q1012 NOSIG

EXPIRED METARs :
  • 212130Z 28003KT CAVOK 17/13 Q1012 NOSIG
  • 212100Z 34004KT 330V140 CAVOK 18/13 Q1012 NOSIG
  • 212030Z 32005KT CAVOK 18/12 Q1011 NOSIG
  • 212000Z 02004KT CAVOK 19/13 Q1011 NOSIG
  • 211930Z 03006KT 300V060 9999 FEW043CB SCT060 BKN083 19/12 Q1011 NOSIG

TAF AMD TAF LFPO
Valid from the 21 at 19:00 until the 23 at 00:00 UTC


211901Z 2119/2224 24006KT CAVOK
PROB30
TEMPO 2119/2120 -SHRA SCT040CB
PROB30
TEMPO 2202/2206 4000 BR
TEMPO 2212/2218 -SHRA SCT040TCU
PROB30
TEMPO 2214/2218 33010G20KT 3000 -TSRA SCT035CB
ATIS : +33 1 49 75 65 80
No reported NOTAMs for that airfield.



MET'MAP, your aeronautical weather chart ! - Copyright ORBIFLY December 2007 - Disclaimer

ORBIFLY MET'MAP TEAM :

Programming & Development : Alexandra Zaïnal
Concept & Development : Baudouin d'Aumeries
Co-Development & Prog : Marc-Olivier Méhu
Technical & hardware support : Manuel Goepfert

Contact : metmap@orbifly.com




SOURCES & CREDITS :

   NOAA